Time;durP1;ratioP1;P1;durP2;ratioP2;P2;SDS_P1;SDS_P2;PMS_P1;PMS_P2;Temp;Humidity;BMP_temperature;BMP_pressure;BME280_temperature;BME280_humidity;BME280_pressure;Samples;Min_cycle;Max_cycle;Signal;HPM_P1;HPM_P2
2021/07/15 00:02:12;;;;;;;;;;;;;;;17.27;80.04;99420.53;4997026;28;19924;-68
2021/07/15 00:05:01;;;;;;;;;;;;;;;17.27;80.22;99428.41;4997633;28;19928;-67
2021/07/15 00:07:50;;;;;;;;;;;;;;;17.26;80.32;99425.81;4997553;28;20008;-67
2021/07/15 00:10:43;;;;;;;;;;;;;;;17.26;80.12;99423.22;4997115;28;19972;-66
2021/07/15 00:13:30;;;;;;;;;;;;;;;17.26;80.29;99429.28;4995715;28;19968;-66
2021/07/15 00:16:14;;;;;;;;;;;;;;;17.26;80.08;99431.91;4996335;28;19924;-66
2021/07/15 00:19:01;;;;;;;;;;;;;;;17.28;80.12;99434.50;4997051;28;19925;-66
2021/07/15 00:21:51;;;;;;;;;;;;;;;17.28;80.15;99440.59;4996917;28;19961;-65
2021/07/15 00:24:38;;;;;;;;;;;;;;;17.26;80.14;99437.16;4996140;28;19926;-67
2021/07/15 00:27:22;;;;;;;;;;;;;;;17.27;80.30;99435.41;4996502;28;19964;-67
2021/07/15 00:30:07;;;;;;;;;;;;;;;17.27;80.22;99438.88;4997009;28;20412;-67
2021/07/15 00:32:56;;;;;;;;;;;;;;;17.28;80.16;99437.13;4996159;28;19941;-67
2021/07/15 00:35:45;;;;;;;;;;;;;;;17.27;80.08;99444.09;4996225;28;19924;-67
2021/07/15 00:38:38;;;;;;;;;;;;;;;17.27;80.14;99433.63;4995635;28;19925;-67
2021/07/15 00:41:25;;;;;;;;;;;;;;;17.28;80.24;99435.34;4996137;28;19924;-66
2021/07/15 00:44:09;;;;;;;;;;;;;;;17.28;80.29;99429.28;4996788;28;20287;-66
2021/07/15 00:47:00;;;;;;;;;;;;;;;17.28;80.28;99440.59;4996656;28;20016;-66
2021/07/15 00:49:48;;;;;;;;;;;;;;;17.27;80.43;99438.88;4996001;28;19944;-65
2021/07/15 00:52:32;;;;;;;;;;;;;;;17.27;80.20;99431.00;4996536;28;20289;-66
2021/07/15 00:55:25;;;;;;;;;;;;;;;17.28;80.28;99439.75;4996467;28;19961;-67
2021/07/15 00:58:15;;;;;;;;;;;;;;;17.28;80.25;99437.13;4996257;28;19989;-66
2021/07/15 01:01:02;;;;;;;;;;;;;;;17.28;80.29;99442.38;4995972;28;19924;-66
2021/07/15 01:03:46;;;;;;;;;;;;;;;17.28;80.61;99443.22;4995434;28;19972;-66
2021/07/15 01:06:35;;;;;;;;;;;;;;;17.29;80.32;99446.69;4996223;28;20028;-66
2021/07/15 01:09:22;;;;;;;;;;;;;;;17.30;80.34;99451.03;4996136;28;19925;-66
2021/07/15 01:12:15;;;;;;;;;;;;;;;17.29;80.40;99454.53;4995366;28;19924;-66
2021/07/15 01:15:09;;;;;;;;;;;;;;;17.28;80.52;99448.44;4995025;28;20395;-66
2021/07/15 01:17:59;;;;;;;;;;;;;;;17.29;80.34;99459.78;4995861;28;19924;-65
2021/07/15 01:20:53;;;;;;;;;;;;;;;17.29;80.40;99458.03;4995513;28;19924;-66
2021/07/15 01:23:54;;;;;;;;;;;;;;;17.28;80.48;99456.31;4995365;28;19928;-66
2021/07/15 01:26:56;;;;;;;;;;;;;;;17.29;80.38;99463.28;4995049;28;19972;-66
2021/07/15 01:29:59;;;;;;;;;;;;;;;17.30;80.39;99458.88;4995797;28;19924;-65
2021/07/15 01:33:00;;;;;;;;;;;;;;;17.28;80.45;99458.94;4994801;28;20036;-65
2021/07/15 01:35:57;;;;;;;;;;;;;;;17.29;80.30;99465.00;4995808;28;20005;-66
2021/07/15 01:38:43;;;;;;;;;;;;;;;17.29;80.41;99467.63;4994966;28;19925;-65
2021/07/15 01:41:41;;;;;;;;;;;;;;;17.28;80.55;99460.69;4995057;28;19951;-66
2021/07/15 01:44:32;;;;;;;;;;;;;;;17.28;80.34;99453.69;4993657;28;19925;-66
2021/07/15 01:47:20;;;;;;;;;;;;;;;17.28;80.25;99461.53;4994508;28;19929;-66
2021/07/15 01:50:09;;;;;;;;;;;;;;;17.28;80.38;99456.31;4995613;28;19925;-66
2021/07/15 01:53:01;;;;;;;;;;;;;;;17.29;80.45;99446.69;4995029;28;19979;-66
2021/07/15 01:55:49;;;;;;;;;;;;;;;17.29;80.33;99452.81;4993802;28;19924;-66
2021/07/15 01:58:37;;;;;;;;;;;;;;;17.29;80.37;99454.53;4994656;28;19925;-67
2021/07/15 02:01:22;;;;;;;;;;;;;;;17.27;80.54;99446.72;4994429;28;19986;-66
2021/07/15 02:04:07;;;;;;;;;;;;;;;17.28;80.64;99455.47;4994730;28;20011;-66
2021/07/15 02:06:58;;;;;;;;;;;;;;;17.27;80.64;99456.34;4994156;28;19925;-66
2021/07/15 02:09:44;;;;;;;;;;;;;;;17.28;80.56;99458.94;4994109;28;19941;-66
2021/07/15 02:12:31;;;;;;;;;;;;;;;17.28;80.39;99461.53;4993681;28;19972;-67
2021/07/15 02:15:18;;;;;;;;;;;;;;;17.26;80.51;99460.72;4994210;28;20098;-67
2021/07/15 02:18:10;;;;;;;;;;;;;;;17.28;80.48;99460.69;4993862;28;19972;-66
2021/07/15 02:20:59;;;;;;;;;;;;;;;17.28;80.34;99458.09;4994062;28;19925;-68
2021/07/15 02:23:49;;;;;;;;;;;;;;;17.27;80.40;99462.44;4994628;28;19936;-67
2021/07/15 02:26:40;;;;;;;;;;;;;;;17.26;80.74;99465.94;4994752;28;19932;-68
2021/07/15 02:29:25;;;;;;;;;;;;;;;17.26;80.38;99465.94;4994657;28;19924;-68
2021/07/15 02:32:10;;;;;;;;;;;;;;;17.26;80.64;99468.56;4993736;28;19924;-66
2021/07/15 02:35:02;;;;;;;;;;;;;;;17.26;80.51;99470.34;4994166;28;20379;-67
2021/07/15 02:37:56;;;;;;;;;;;;;;;17.25;80.35;99477.31;4995038;28;19972;-68
2021/07/15 02:40:51;;;;;;;;;;;;;;;17.26;80.50;99478.19;4994911;28;20004;-67
2021/07/15 02:43:41;;;;;;;;;;;;;;;17.26;80.41;99470.34;4994478;28;19925;-67
2021/07/15 02:46:28;;;;;;;;;;;;;;;17.24;80.43;99478.22;4994961;28;19925;-68
2021/07/15 02:49:15;;;;;;;;;;;;;;;17.24;80.42;99459.88;4993837;28;19971;-68
2021/07/15 02:52:04;;;;;;;;;;;;;;;17.25;80.55;99463.38;4994242;28;19925;-68
2021/07/15 02:54:48;;;;;;;;;;;;;;;17.24;80.38;99462.50;4993722;28;20320;-66
2021/07/15 02:57:52;;;;;;;;;;;;;;;17.25;80.41;99464.22;5001140;28;19925;-67
2021/07/15 03:00:47;;;;;;;;;;;;;;;17.25;80.50;99466.00;4995476;28;19932;-66
2021/07/15 03:03:38;;;;;;;;;;;;;;;17.23;80.46;99468.63;5000033;28;20412;-66
2021/07/15 03:06:22;;;;;;;;;;;;;;;17.23;80.55;99473.88;5000003;28;19964;-67
2021/07/15 03:09:21;;;;;;;;;;;;;;;17.22;80.64;99471.28;4999929;28;19925;-66
2021/07/15 03:12:13;;;;;;;;;;;;;;;17.23;80.48;99473.88;5000973;28;19932;-66
2021/07/15 03:15:03;;;;;;;;;;;;;;;17.23;80.70;99473.88;5000204;28;19972;-66
2021/07/15 03:17:48;;;;;;;;;;;;;;;17.21;80.41;99483.50;4999982;28;19963;-66
2021/07/15 03:20:43;;;;;;;;;;;;;;;17.22;80.49;99487.84;5000066;28;20285;-66
2021/07/15 03:23:28;;;;;;;;;;;;;;;17.20;80.59;99495.75;4999584;28;19999;-66
2021/07/15 03:26:15;;;;;;;;;;;;;;;17.22;80.46;99506.19;4999794;28;19924;-66
2021/07/15 03:29:02;;;;;;;;;;;;;;;17.22;80.56;99514.03;5000114;28;19925;-66
2021/07/15 03:31:50;;;;;;;;;;;;;;;17.23;80.50;99517.53;5000409;28;20427;-66
2021/07/15 03:34:36;;;;;;;;;;;;;;;17.23;80.48;99514.91;5000232;28;19980;-66
2021/07/15 03:37:21;;;;;;;;;;;;;;;17.22;80.49;99508.78;4999692;28;19925;-66
2021/07/15 03:40:15;;;;;;;;;;;;;;;17.21;80.49;99501.81;4999492;28;19964;-66
2021/07/15 03:42:59;;;;;;;;;;;;;;;17.20;80.64;99505.38;4999567;28;19924;-66
2021/07/15 03:45:49;;;;;;;;;;;;;;;17.20;80.63;99502.75;4999978;28;19968;-67
2021/07/15 03:48:37;;;;;;;;;;;;;;;17.17;80.69;99482.72;4999804;28;19925;-66
2021/07/15 03:51:28;;;;;;;;;;;;;;;17.19;80.49;99493.16;4999448;28;20316;-67
2021/07/15 03:54:13;;;;;;;;;;;;;;;17.17;80.50;99495.81;4999927;28;20385;-68
2021/07/15 03:56:57;;;;;;;;;;;;;;;17.17;80.68;99493.19;4999756;28;19929;-68
2021/07/15 03:59:48;;;;;;;;;;;;;;;17.18;80.58;99509.78;4999643;28;19925;-68
2021/07/15 04:02:39;;;;;;;;;;;;;;;17.17;80.67;99508.03;4999396;28;19971;-68
2021/07/15 04:05:31;;;;;;;;;;;;;;;17.17;80.48;99500.19;4999689;28;20384;-68
2021/07/15 04:08:16;;;;;;;;;;;;;;;17.17;80.76;99510.66;4996642;28;20408;-68
2021/07/15 04:11:04;;;;;;;;;;;;;;;17.17;80.58;99508.88;4995986;28;19924;-68
2021/07/15 04:13:55;;;;;;;;;;;;;;;17.18;80.68;99512.38;4996150;28;19988;-68
2021/07/15 04:17:17;;;;;;;;;;;;;;;17.18;80.58;99507.16;4996338;28;19925;-68
2021/07/15 04:20:06;;;;;;;;;;;;;;;17.18;80.70;99515.00;4959388;28;19972;-68
2021/07/15 04:23:01;;;;;;;;;;;;;;;17.16;80.61;99520.25;4995599;28;20322;-68
2021/07/15 04:25:55;;;;;;;;;;;;;;;17.17;80.66;99531.59;4996125;28;20408;-67
2021/07/15 04:28:39;;;;;;;;;;;;;;;17.16;80.65;99532.50;4996377;28;20025;-67
2021/07/15 04:31:43;;;;;;;;;;;;;;;17.16;80.76;99529.88;4996286;28;19964;-69
2021/07/15 04:34:30;;;;;;;;;;;;;;;17.16;80.74;99530.72;4995746;28;19971;-68
2021/07/15 04:37:20;;;;;;;;;;;;;;;17.15;80.75;99518.53;4995606;28;19948;-69
2021/07/15 04:40:11;;;;;;;;;;;;;;;17.16;80.68;99528.09;4995988;28;19925;-68
2021/07/15 04:43:01;;;;;;;;;;;;;;;17.15;80.65;99536.84;4995991;28;19940;-66
2021/07/15 04:45:49;;;;;;;;;;;;;;;17.15;80.66;99536.00;4995884;28;19960;-67
2021/07/15 04:48:38;;;;;;;;;;;;;;;17.13;80.71;99541.25;4995616;28;19945;-69
2021/07/15 04:51:26;;;;;;;;;;;;;;;17.14;80.77;99545.59;4995744;28;20420;-67
2021/07/15 04:54:12;;;;;;;;;;;;;;;17.15;80.58;99556.94;4995644;28;19968;-67
2021/07/15 04:56:56;;;;;;;;;;;;;;;17.16;80.63;99562.16;4995290;28;20046;-68
2021/07/15 04:59:43;;;;;;;;;;;;;;;17.14;80.71;99563.94;4995695;28;19925;-67
2021/07/15 05:02:30;;;;;;;;;;;;;;;17.16;80.64;99563.91;4995477;28;19963;-68
2021/07/15 05:05:19;;;;;;;;;;;;;;;17.15;80.72;99565.66;4995545;28;19992;-67
2021/07/15 05:08:03;;;;;;;;;;;;;;;17.15;80.59;99565.66;4995143;28;20399;-67
2021/07/15 05:10:53;;;;;;;;;;;;;;;17.14;80.83;99561.31;4995424;28;19928;-67
2021/07/15 05:13:46;;;;;;;;;;;;;;;17.15;80.78;99570.03;4994698;28;19941;-67
2021/07/15 05:16:33;;;;;;;;;;;;;;;17.15;80.69;99568.28;4996619;28;20032;-68
2021/07/15 05:19:22;;;;;;;;;;;;;;;17.15;80.50;99565.66;4994887;28;19925;-67
2021/07/15 05:22:15;;;;;;;;;;;;;;;17.16;80.57;99569.16;4995392;28;19928;-68
2021/07/15 05:24:59;;;;;;;;;;;;;;;17.13;80.87;99575.28;4995082;28;19924;-67
2021/07/15 05:27:48;;;;;;;;;;;;;;;17.14;80.77;99563.94;4995179;28;19928;-67
2021/07/15 05:30:38;;;;;;;;;;;;;;;17.15;80.61;99568.28;4994814;28;20440;-67
2021/07/15 05:33:22;;;;;;;;;;;;;;;17.12;81.00;99560.50;4994921;28;19924;-67
2021/07/15 05:36:10;;;;;;;;;;;;;;;17.13;80.73;99556.13;4994870;28;20435;-67
2021/07/15 05:39:00;;;;;;;;;;;;;;;17.14;80.74;99555.22;4994693;28;19975;-67
2021/07/15 05:41:52;;;;;;;;;;;;;;;17.16;80.79;99550.81;4995496;28;19956;-67
2021/07/15 05:44:42;;;;;;;;;;;;;;;17.16;80.72;99540.34;4994663;28;19980;-67
2021/07/15 05:47:35;;;;;;;;;;;;;;;17.14;80.87;99537.75;4995075;28;19929;-67
2021/07/15 05:50:19;;;;;;;;;;;;;;;17.16;80.82;99542.97;4994521;28;19925;-67
2021/07/15 05:53:06;;;;;;;;;;;;;;;17.13;80.85;99546.50;4994399;28;19925;-67
2021/07/15 05:55:56;;;;;;;;;;;;;;;17.15;80.77;99552.56;4994913;28;19976;-67
2021/07/15 05:58:43;;;;;;;;;;;;;;;17.17;80.76;99563.03;4994170;28;19925;-67
2021/07/15 06:01:27;;;;;;;;;;;;;;;17.16;80.74;99558.69;4995107;28;20392;-67
2021/07/15 06:04:14;;;;;;;;;;;;;;;17.16;80.70;99559.53;4994251;28;19924;-68
2021/07/15 06:07:09;;;;;;;;;;;;;;;17.16;80.99;99566.53;4994200;28;20346;-67
2021/07/15 06:09:59;;;;;;;;;;;;;;;17.16;80.71;99574.38;4993958;28;20400;-67
2021/07/15 06:12:43;;;;;;;;;;;;;;;17.14;80.88;99579.63;4993703;28;19928;-67
2021/07/15 06:15:34;;;;;;;;;;;;;;;17.16;80.85;99582.25;4995025;28;20328;-67
2021/07/15 06:18:18;;;;;;;;;;;;;;;17.16;80.79;99592.72;4995021;28;19925;-67
2021/07/15 06:21:07;;;;;;;;;;;;;;;17.16;80.78;99590.94;4993588;28;19972;-67
2021/07/15 06:23:54;;;;;;;;;;;;;;;17.15;80.80;99589.22;4994420;28;19924;-67
2021/07/15 06:26:41;;;;;;;;;;;;;;;17.14;80.91;99595.34;4995125;28;20285;-67
2021/07/15 06:29:26;;;;;;;;;;;;;;;17.16;81.00;99609.28;4994673;28;20392;-69
2021/07/15 06:32:15;;;;;;;;;;;;;;;17.16;80.76;99604.03;4994161;28;20324;-68
2021/07/15 06:35:02;;;;;;;;;;;;;;;17.14;80.94;99602.34;4993928;28;19924;-68
2021/07/15 06:37:53;;;;;;;;;;;;;;;17.14;80.89;99612.81;4993572;28;19924;-69
2021/07/15 06:40:37;;;;;;;;;;;;;;;17.14;80.83;99618.91;4994248;28;20032;-69
2021/07/15 06:43:24;;;;;;;;;;;;;;;17.14;80.94;99632.00;4993818;28;19967;-68
2021/07/15 06:46:09;;;;;;;;;;;;;;;17.14;80.92;99631.16;4993441;28;20008;-68
2021/07/15 06:48:53;;;;;;;;;;;;;;;17.14;80.78;99628.53;4993840;28;19999;-69
2021/07/15 06:51:37;;;;;;;;;;;;;;;17.15;80.85;99627.66;4994419;28;19968;-68
2021/07/15 06:54:21;;;;;;;;;;;;;;;17.13;80.87;99629.41;4993458;28;20285;-68
2021/07/15 06:57:08;;;;;;;;;;;;;;;17.11;80.82;99631.19;4994623;28;19925;-68
2021/07/15 06:59:58;;;;;;;;;;;;;;;17.13;80.77;99622.41;4994558;28;19925;-67
2021/07/15 07:02:43;;;;;;;;;;;;;;;17.12;80.81;99612.88;4993326;28;19925;-67
2021/07/15 07:05:27;;;;;;;;;;;;;;;17.11;80.93;99615.50;4993291;28;20293;-68
2021/07/15 07:08:16;;;;;;;;;;;;;;;17.12;80.93;99611.97;4994771;28;19972;-67
2021/07/15 07:11:00;;;;;;;;;;;;;;;17.12;80.79;99625.06;4993044;28;19942;-67
2021/07/15 07:13:44;;;;;;;;;;;;;;;17.10;80.92;99630.34;4994137;28;20024;-67
2021/07/15 07:16:31;;;;;;;;;;;;;;;17.10;80.99;99626.84;4993471;28;19971;-68
2021/07/15 07:19:15;;;;;;;;;;;;;;;17.12;80.81;99635.53;4993250;28;19925;-68
2021/07/15 07:21:59;;;;;;;;;;;;;;;17.12;80.79;99633.81;4993673;28;20380;-67
2021/07/15 07:24:48;;;;;;;;;;;;;;;17.12;80.63;99639.03;4992841;28;19980;-68
2021/07/15 07:27:33;;;;;;;;;;;;;;;17.11;80.95;99642.56;4993356;28;19924;-69
2021/07/15 07:30:23;;;;;;;;;;;;;;;17.11;80.80;99650.41;4993512;28;19940;-68
2021/07/15 07:33:10;;;;;;;;;;;;;;;17.10;81.04;99661.75;4993931;28;19929;-68
2021/07/15 07:35:57;;;;;;;;;;;;;;;17.11;80.98;99649.53;4993210;28;19967;-69
2021/07/15 07:38:41;;;;;;;;;;;;;;;17.11;80.77;99652.13;4993666;28;20008;-69
2021/07/15 07:41:31;;;;;;;;;;;;;;;17.11;81.00;99649.53;4992973;28;20333;-68
2021/07/15 07:44:15;;;;;;;;;;;;;;;17.10;81.00;99653.91;4996389;28;19992;-69
2021/07/15 07:47:08;;;;;;;;;;;;;;;17.10;81.03;99656.53;4997599;28;19940;-69
2021/07/15 07:49:58;;;;;;;;;;;;;;;17.10;80.93;99651.28;4996701;28;20032;-69
2021/07/15 07:52:45;;;;;;;;;;;;;;;17.10;81.06;99646.06;4997105;28;19924;-68
2021/07/15 07:55:30;;;;;;;;;;;;;;;17.11;81.08;99658.25;4996788;28;19924;-68
2021/07/15 07:58:17;;;;;;;;;;;;;;;17.12;80.97;99660.00;4997000;28;19925;-69
2021/07/15 08:01:06;;;;;;;;;;;;;;;17.09;80.98;99657.41;4996864;28;20345;-69
2021/07/15 08:03:50;;;;;;;;;;;;;;;17.10;81.12;99664.38;4997695;28;19924;-68
2021/07/15 08:06:41;;;;;;;;;;;;;;;17.12;80.83;99665.22;4997689;28;19964;-68
2021/07/15 08:09:30;;;;;;;;;;;;;;;17.12;81.02;99661.72;4996310;28;19969;-67
2021/07/15 08:12:19;;;;;;;;;;;;;;;17.11;80.83;99660.00;4996290;28;20423;-69
2021/07/15 08:15:09;;;;;;;;;;;;;;;17.13;81.16;99663.47;4996246;28;19925;-68
2021/07/15 08:17:56;;;;;;;;;;;;;;;17.12;80.88;99680.06;4996136;28;19925;-67
2021/07/15 08:20:47;;;;;;;;;;;;;;;17.12;81.09;99683.56;4996202;28;19924;-68
2021/07/15 08:23:33;;;;;;;;;;;;;;;17.13;81.08;99689.63;4995764;28;19924;-68
2021/07/15 08:26:20;;;;;;;;;;;;;;;17.12;81.19;99686.16;4996476;28;19976;-68
2021/07/15 08:29:10;;;;;;;;;;;;;;;17.14;81.16;99692.22;4996748;28;19964;-69
2021/07/15 08:31:59;;;;;;;;;;;;;;;17.15;80.91;99693.09;4995821;28;19924;-68
2021/07/15 08:34:46;;;;;;;;;;;;;;;17.15;81.07;99693.09;4995958;28;19928;-69
2021/07/15 08:37:33;;;;;;;;;;;;;;;17.15;80.86;99695.72;4995821;28;19925;-68
2021/07/15 08:40:20;;;;;;;;;;;;;;;17.14;81.02;99689.59;4995480;28;19928;-69
2021/07/15 08:43:08;;;;;;;;;;;;;;;17.14;81.04;99702.69;4996118;28;20302;-69
2021/07/15 08:45:55;;;;;;;;;;;;;;;17.15;81.04;99693.94;4996071;28;20054;-69
2021/07/15 08:48:44;;;;;;;;;;;;;;;17.16;80.98;99700.06;4997020;28;20384;-67
2021/07/15 08:51:28;;;;;;;;;;;;;;;17.16;80.98;99716.63;4995979;28;20312;-68
2021/07/15 08:54:16;;;;;;;;;;;;;;;17.16;81.30;99713.16;4995319;28;20019;-69
2021/07/15 08:57:06;;;;;;;;;;;;;;;17.17;81.04;99709.66;4996147;28;20438;-69
2021/07/15 08:59:50;;;;;;;;;;;;;;;17.17;81.05;99699.19;4995416;28;19924;-67
2021/07/15 09:02:37;;;;;;;;;;;;;;;17.16;81.05;99698.28;4995238;28;20017;-67
2021/07/15 09:05:26;;;;;;;;;;;;;;;17.16;81.15;99702.69;4995469;28;20012;-68
2021/07/15 09:08:14;;;;;;;;;;;;;;;17.17;81.05;99701.78;4996152;28;19924;-68
2021/07/15 09:11:02;;;;;;;;;;;;;;;17.16;81.07;99698.28;4995650;28;19924;-69
2021/07/15 09:13:52;;;;;;;;;;;;;;;17.17;81.25;99700.03;4995753;28;20016;-68
2021/07/15 09:16:50;;;;;;;;;;;;;;;17.18;81.01;99707.00;4995415;28;19960;-69
2021/07/15 09:19:37;;;;;;;;;;;;;;;17.18;81.03;99708.75;4995991;28;20320;-68
2021/07/15 09:22:30;;;;;;;;;;;;;;;17.18;81.09;99712.22;4995383;28;19924;-68
2021/07/15 09:25:17;;;;;;;;;;;;;;;17.19;81.02;99713.13;4995996;28;19980;-68
2021/07/15 09:28:14;;;;;;;;;;;;;;;17.18;81.18;99717.47;4995027;28;19988;-68
2021/07/15 09:31:21;;;;;;;;;;;;;;;17.18;81.23;99719.25;4995262;28;19925;-69
2021/07/15 09:34:15;;;;;;;;;;;;;;;17.19;81.08;99728.81;4995006;28;20293;-69
2021/07/15 09:37:11;;;;;;;;;;;;;;;17.20;81.20;99738.41;4994769;28;20021;-68
2021/07/15 09:39:55;;;;;;;;;;;;;;;17.19;81.11;99734.06;4995266;28;20020;-69
2021/07/15 09:42:42;;;;;;;;;;;;;;;17.20;81.22;99733.19;4995368;28;19964;-69
2021/07/15 09:45:31;;;;;;;;;;;;;;;17.20;81.21;99736.63;4995484;28;19924;-68
2021/07/15 09:48:27;;;;;;;;;;;;;;;17.21;81.16;99742.72;4994317;28;19972;-68
2021/07/15 09:51:12;;;;;;;;;;;;;;;17.21;81.09;99734.88;4994829;28;20003;-69
2021/07/15 09:54:04;;;;;;;;;;;;;;;17.20;81.17;99741.88;4994483;28;19924;-68
2021/07/15 09:56:54;;;;;;;;;;;;;;;17.22;81.15;99744.47;4994227;28;19972;-68
2021/07/15 09:59:50;;;;;;;;;;;;;;;17.22;81.05;99748.84;4994288;28;20427;-68
2021/07/15 10:02:34;;;;;;;;;;;;;;;17.21;81.19;99747.97;4994140;28;19940;-68
2021/07/15 10:05:23;;;;;;;;;;;;;;;17.22;81.12;99748.84;4993812;28;19925;-67
2021/07/15 10:08:22;;;;;;;;;;;;;;;17.22;81.30;99754.09;4994672;28;19968;-68
2021/07/15 10:11:17;;;;;;;;;;;;;;;17.22;81.20;99752.31;4994401;28;20338;-68
2021/07/15 10:14:05;;;;;;;;;;;;;;;17.22;81.11;99756.69;4993920;28;19924;-68
2021/07/15 10:16:52;;;;;;;;;;;;;;;17.22;81.36;99765.41;4995367;28;20000;-68
2021/07/15 10:19:36;;;;;;;;;;;;;;;17.22;81.06;99752.31;4993828;28;19925;-68
2021/07/15 10:22:32;;;;;;;;;;;;;;;17.23;81.15;99758.44;4993787;28;19925;-69
2021/07/15 10:25:22;;;;;;;;;;;;;;;17.22;81.08;99754.94;4994499;28;19925;-68
2021/07/15 10:28:06;;;;;;;;;;;;;;;17.22;81.21;99756.69;4994239;28;19977;-68
2021/07/15 10:30:57;;;;;;;;;;;;;;;17.23;80.98;99751.44;4994010;28;19924;-68
2021/07/15 10:33:44;;;;;;;;;;;;;;;17.24;81.09;99758.41;4993290;28;20029;-68
2021/07/15 10:36:32;;;;;;;;;;;;;;;17.23;81.11;99763.66;4993596;28;19972;-68
2021/07/15 10:39:22;;;;;;;;;;;;;;;17.23;81.10;99761.06;4993561;28;20416;-68
2021/07/15 10:42:06;;;;;;;;;;;;;;;17.25;81.09;99767.13;4993688;28;19925;-68
2021/07/15 10:44:53;;;;;;;;;;;;;;;17.23;81.13;99759.28;4994512;28;20396;-68
2021/07/15 10:47:38;;;;;;;;;;;;;;;17.23;81.11;99771.53;4994694;28;20341;-68
2021/07/15 10:50:22;;;;;;;;;;;;;;;17.22;81.15;99770.66;4994023;28;19992;-68
2021/07/15 10:53:09;;;;;;;;;;;;;;;17.23;81.06;99780.22;4994976;28;20060;-69
2021/07/15 10:55:59;;;;;;;;;;;;;;;17.23;81.07;99782.00;4994756;28;19939;-68
2021/07/15 10:58:47;;;;;;;;;;;;;;;17.24;81.05;99781.97;4993398;28;20396;-68
2021/07/15 11:01:41;;;;;;;;;;;;;;;17.23;81.18;99782.84;4993167;28;19925;-67
2021/07/15 11:04:37;;;;;;;;;;;;;;;17.23;80.95;99788.09;4993427;28;20001;-67
2021/07/15 11:07:27;;;;;;;;;;;;;;;17.24;81.05;99791.59;4993380;28;19968;-67
2021/07/15 11:10:21;;;;;;;;;;;;;;;17.25;80.91;99788.09;4994281;28;20012;-67
2021/07/15 11:13:09;;;;;;;;;;;;;;;17.25;81.02;99790.72;4993118;28;19924;-67
2021/07/15 11:16:06;;;;;;;;;;;;;;;17.26;81.25;99797.69;4994091;28;19925;-67
2021/07/15 11:18:53;;;;;;;;;;;;;;;17.25;81.10;99802.03;4998024;28;19925;-67
2021/07/15 11:21:37;;;;;;;;;;;;;;;17.26;81.00;99808.16;4997739;28;20325;-66
2021/07/15 11:24:23;;;;;;;;;;;;;;;17.26;80.90;99816.00;4998037;28;20017;-68
2021/07/15 11:27:26;;;;;;;;;;;;;;;17.26;80.99;99819.47;4998176;28;19945;-68
2021/07/15 11:30:16;;;;;;;;;;;;;;;17.26;81.04;99818.63;4997028;28;20376;-68
2021/07/15 11:33:19;;;;;;;;;;;;;;;17.25;81.08;99822.97;4998210;28;19924;-68
2021/07/15 11:36:11;;;;;;;;;;;;;;;17.25;81.05;99820.38;4997399;28;20392;-68
2021/07/15 11:38:56;;;;;;;;;;;;;;;17.26;81.07;99827.34;4997730;28;19964;-68
2021/07/15 11:41:44;;;;;;;;;;;;;;;17.25;81.18;99828.22;4997607;28;19925;-68
2021/07/15 11:44:48;;;;;;;;;;;;;;;17.27;81.09;99833.44;4996994;28;19972;-68
2021/07/15 11:47:41;;;;;;;;;;;;;;;17.26;80.86;99823.88;4996720;28;20273;-68
2021/07/15 11:50:38;;;;;;;;;;;;;;;17.24;81.06;99823.88;4997746;28;19944;-68
2021/07/15 11:53:23;;;;;;;;;;;;;;;17.26;80.96;99818.63;4997311;28;19925;-68
2021/07/15 11:56:22;;;;;;;;;;;;;;;17.25;81.02;99822.13;4997606;28;19971;-68
2021/07/15 11:59:13;;;;;;;;;;;;;;;17.26;80.97;99823.88;4997861;28;20317;-67
2021/07/15 12:02:08;;;;;;;;;;;;;;;17.27;81.09;99826.44;4996124;28;19924;-67
2021/07/15 12:05:10;;;;;;;;;;;;;;;17.27;81.15;99831.69;4997583;28;19925;-68
2021/07/15 12:08:14;;;;;;;;;;;;;;;17.27;81.00;99831.69;4997510;28;20468;-68
2021/07/15 12:11:03;;;;;;;;;;;;;;;17.28;81.05;99840.41;4996189;28;19976;-68
2021/07/15 12:13:53;;;;;;;;;;;;;;;17.27;81.01;99842.16;4997158;28;19968;-68
2021/07/15 12:16:40;;;;;;;;;;;;;;;17.28;81.12;99845.66;4997078;28;19929;-68
2021/07/15 12:19:25;;;;;;;;;;;;;;;17.28;80.94;99843.03;4996152;28;19925;-68
2021/07/15 12:22:11;;;;;;;;;;;;;;;17.28;80.96;99843.91;4996218;28;19924;-68
2021/07/15 12:25:08;;;;;;;;;;;;;;;17.28;81.01;99854.38;4996628;28;19924;-68
2021/07/15 12:27:54;;;;;;;;;;;;;;;17.28;81.10;99859.59;4996831;28;19927;-68
2021/07/15 12:30:50;;;;;;;;;;;;;;;17.28;81.10;99862.22;4996782;28;19925;-68
2021/07/15 12:33:43;;;;;;;;;;;;;;;17.27;80.95;99857.88;4995756;28;20435;-68
2021/07/15 12:36:27;;;;;;;;;;;;;;;17.28;80.97;99870.09;4995732;28;20308;-68
2021/07/15 12:39:19;;;;;;;;;;;;;;;17.28;81.11;99875.31;4997219;28;20004;-68
2021/07/15 12:42:04;;;;;;;;;;;;;;;17.28;80.96;99888.41;4996839;28;20025;-68
2021/07/15 12:44:47;;;;;;;;;;;;;;;17.28;80.84;99885.78;4995852;28;19992;-67
2021/07/15 12:47:33;;;;;;;;;;;;;;;17.28;80.87;99879.72;4996782;28;19924;-68
2021/07/15 12:50:21;;;;;;;;;;;;;;;17.29;80.86;99865.69;4996770;28;19944;-67
2021/07/15 12:53:11;;;;;;;;;;;;;;;17.30;80.90;99872.66;4995781;28;19924;-68
2021/07/15 12:56:01;;;;;;;;;;;;;;;17.28;81.19;99872.69;4996458;28;19963;-68
2021/07/15 12:58:56;;;;;;;;;;;;;;;17.28;80.90;99869.22;4996676;28;20273;-68
2021/07/15 13:01:42;;;;;;;;;;;;;;;17.28;81.15;99875.31;4995291;28;19967;-68
2021/07/15 13:04:35;;;;;;;;;;;;;;;17.29;81.10;99876.16;4995297;28;20440;-67
2021/07/15 13:07:22;;;;;;;;;;;;;;;17.30;80.98;99872.66;4995460;28;19926;-67
2021/07/15 13:10:22;;;;;;;;;;;;;;;17.29;80.97;99879.66;4995722;28;19925;-67
2021/07/15 13:16:10;;;;;;;;;;;;;;;17.29;80.91;99874.44;4996008;28;20342;-67
2021/07/15 13:19:10;;;;;;;;;;;;;;;17.29;80.91;99866.56;4996503;28;20013;-67
2021/07/15 13:22:08;;;;;;;;;;;;;;;17.29;81.14;99863.97;4995226;28;19924;-67
2021/07/15 13:24:59;;;;;;;;;;;;;;;17.29;81.19;99871.81;4995211;28;19925;-67
2021/07/15 13:27:46;;;;;;;;;;;;;;;17.28;80.92;99874.47;4994774;28;19929;-67
2021/07/15 13:30:37;;;;;;;;;;;;;;;17.28;81.04;99874.47;4995718;28;19949;-67
2021/07/15 13:33:27;;;;;;;;;;;;;;;17.28;80.97;99885.78;4995396;28;19940;-67
2021/07/15 13:36:12;;;;;;;;;;;;;;;17.29;80.96;99882.28;4994698;28;20016;-67
2021/07/15 13:38:56;;;;;;;;;;;;;;;17.30;80.92;99889.25;4995737;28;20346;-67
2021/07/15 13:41:45;;;;;;;;;;;;;;;17.30;80.92;99889.25;4995658;28;20336;-67
2021/07/15 13:44:29;;;;;;;;;;;;;;;17.29;81.13;99892.78;4995886;28;20040;-66
2021/07/15 13:47:13;;;;;;;;;;;;;;;17.30;80.89;99893.63;4994855;28;19924;-67
2021/07/15 13:50:02;;;;;;;;;;;;;;;17.28;80.79;99896.28;4995944;28;19972;-68
2021/07/15 13:52:46;;;;;;;;;;;;;;;17.30;81.07;99904.09;4994459;28;20328;-67
2021/07/15 13:55:30;;;;;;;;;;;;;;;17.29;80.97;99904.97;4994801;28;19968;-66
2021/07/15 13:58:19;;;;;;;;;;;;;;;17.29;80.90;99911.09;4994290;28;20440;-67
2021/07/15 14:01:03;;;;;;;;;;;;;;;17.29;80.96;99912.84;4994191;28;19925;-66
2021/07/15 14:03:51;;;;;;;;;;;;;;;17.29;81.20;99913.72;4995743;28;19929;-66
2021/07/15 14:06:41;;;;;;;;;;;;;;;17.29;80.96;99916.34;4995166;28;19924;-67
2021/07/15 14:09:25;;;;;;;;;;;;;;;17.29;81.00;99913.72;4993759;28;19925;-67
2021/07/15 14:12:17;;;;;;;;;;;;;;;17.29;81.08;99911.09;4994189;28;20391;-67
2021/07/15 14:15:03;;;;;;;;;;;;;;;17.29;81.17;99911.09;4995102;28;20017;-67
2021/07/15 14:17:59;;;;;;;;;;;;;;;17.29;80.99;99921.56;4994815;28;19976;-66
2021/07/15 14:20:52;;;;;;;;;;;;;;;17.29;81.06;99913.72;4995012;28;19929;-67
2021/07/15 14:23:40;;;;;;;;;;;;;;;17.30;80.96;99922.44;4994223;28;19925;-66
2021/07/15 14:26:24;;;;;;;;;;;;;;;17.29;81.05;99924.19;4993766;28;20000;-67
2021/07/15 14:29:13;;;;;;;;;;;;;;;17.29;80.98;99924.19;4993952;28;20328;-67
2021/07/15 14:31:57;;;;;;;;;;;;;;;17.28;81.19;99922.47;4994819;28;20400;-67
2021/07/15 14:34:43;;;;;;;;;;;;;;;17.29;81.13;99931.16;4994052;28;19925;-67
2021/07/15 14:37:34;;;;;;;;;;;;;;;17.29;81.20;99934.66;4994437;28;19928;-68
2021/07/15 14:40:24;;;;;;;;;;;;;;;17.28;81.15;99935.56;4993527;28;19925;-67
2021/07/15 14:43:14;;;;;;;;;;;;;;;17.27;81.16;99935.59;4993684;28;19924;-68
2021/07/15 14:46:04;;;;;;;;;;;;;;;17.28;81.08;99938.19;4994641;28;20016;-68